sensor_id;sensor_type;location;lat;lon;timestamp;temperature;humidity
8820;DHT22;4446;50.876;4.736;2022-07-06T00:00:21;11.30;99.90
8820;DHT22;4446;50.876;4.736;2022-07-06T00:02:48;11.30;99.90
8820;DHT22;4446;50.876;4.736;2022-07-06T00:05:14;11.30;99.90
8820;DHT22;4446;50.876;4.736;2022-07-06T00:07:43;11.20;99.90
8820;DHT22;4446;50.876;4.736;2022-07-06T00:10:10;11.20;99.90
8820;DHT22;4446;50.876;4.736;2022-07-06T00:12:37;11.20;99.90
8820;DHT22;4446;50.876;4.736;2022-07-06T00:15:05;11.20;99.90
8820;DHT22;4446;50.876;4.736;2022-07-06T00:17:32;11.30;99.90
8820;DHT22;4446;50.876;4.736;2022-07-06T00:19:59;11.40;99.90
8820;DHT22;4446;50.876;4.736;2022-07-06T00:22:26;11.50;99.90
8820;DHT22;4446;50.876;4.736;2022-07-06T00:24:54;11.50;99.90
8820;DHT22;4446;50.876;4.736;2022-07-06T00:27:21;11.50;99.90
8820;DHT22;4446;50.876;4.736;2022-07-06T00:29:48;11.50;99.90
8820;DHT22;4446;50.876;4.736;2022-07-06T00:32:15;11.50;99.90
8820;DHT22;4446;50.876;4.736;2022-07-06T00:34:42;11.50;99.90
8820;DHT22;4446;50.876;4.736;2022-07-06T00:37:09;11.50;99.90
8820;DHT22;4446;50.876;4.736;2022-07-06T00:39:36;11.30;99.90
8820;DHT22;4446;50.876;4.736;2022-07-06T00:42:05;11.40;99.90
8820;DHT22;4446;50.876;4.736;2022-07-06T00:44:32;11.40;99.90
8820;DHT22;4446;50.876;4.736;2022-07-06T00:46:59;11.30;99.90
8820;DHT22;4446;50.876;4.736;2022-07-06T00:49:26;11.30;99.90
8820;DHT22;4446;50.876;4.736;2022-07-06T00:52:10;11.20;99.90
8820;DHT22;4446;50.876;4.736;2022-07-06T00:54:39;11.10;99.90
8820;DHT22;4446;50.876;4.736;2022-07-06T00:57:09;11.10;99.90
8820;DHT22;4446;50.876;4.736;2022-07-06T00:59:37;11.00;99.90
8820;DHT22;4446;50.876;4.736;2022-07-06T01:02:04;11.00;99.90
8820;DHT22;4446;50.876;4.736;2022-07-06T01:04:31;10.90;99.90
8820;DHT22;4446;50.876;4.736;2022-07-06T01:06:58;10.90;99.90
8820;DHT22;4446;50.876;4.736;2022-07-06T01:09:25;10.90;99.90
8820;DHT22;4446;50.876;4.736;2022-07-06T01:11:52;10.80;99.90
8820;DHT22;4446;50.876;4.736;2022-07-06T01:14:22;10.80;99.90
8820;DHT22;4446;50.876;4.736;2022-07-06T01:16:49;10.80;99.90
8820;DHT22;4446;50.876;4.736;2022-07-06T01:19:16;10.70;99.90
8820;DHT22;4446;50.876;4.736;2022-07-06T01:21:44;10.70;99.90
8820;DHT22;4446;50.876;4.736;2022-07-06T01:24:11;10.70;99.90
8820;DHT22;4446;50.876;4.736;2022-07-06T01:26:38;10.60;99.90
8820;DHT22;4446;50.876;4.736;2022-07-06T01:29:05;10.60;99.90
8820;DHT22;4446;50.876;4.736;2022-07-06T01:31:33;10.60;99.90
8820;DHT22;4446;50.876;4.736;2022-07-06T01:34:00;10.60;99.90
8820;DHT22;4446;50.876;4.736;2022-07-06T01:36:27;10.60;99.90
8820;DHT22;4446;50.876;4.736;2022-07-06T01:38:56;10.50;99.90
8820;DHT22;4446;50.876;4.736;2022-07-06T01:41:23;10.50;99.90
8820;DHT22;4446;50.876;4.736;2022-07-06T01:43:51;10.50;99.90
8820;DHT22;4446;50.876;4.736;2022-07-06T01:46:18;10.50;99.90
8820;DHT22;4446;50.876;4.736;2022-07-06T01:48:46;10.50;99.90
8820;DHT22;4446;50.876;4.736;2022-07-06T01:51:13;10.50;99.90
8820;DHT22;4446;50.876;4.736;2022-07-06T01:53:40;10.50;99.90
8820;DHT22;4446;50.876;4.736;2022-07-06T01:56:09;10.50;99.90
8820;DHT22;4446;50.876;4.736;2022-07-06T01:58:37;10.50;99.90
8820;DHT22;4446;50.876;4.736;2022-07-06T02:01:07;10.60;99.90
8820;DHT22;4446;50.876;4.736;2022-07-06T02:03:34;10.60;99.90
8820;DHT22;4446;50.876;4.736;2022-07-06T02:06:02;10.80;99.90
8820;DHT22;4446;50.876;4.736;2022-07-06T02:08:29;10.80;99.90
8820;DHT22;4446;50.876;4.736;2022-07-06T02:10:56;10.90;99.90
8820;DHT22;4446;50.876;4.736;2022-07-06T02:13:25;10.90;99.90
8820;DHT22;4446;50.876;4.736;2022-07-06T02:15:52;10.90;99.90
8820;DHT22;4446;50.876;4.736;2022-07-06T02:18:19;11.00;99.90
8820;DHT22;4446;50.876;4.736;2022-07-06T02:20:46;11.00;99.90
8820;DHT22;4446;50.876;4.736;2022-07-06T02:23:13;10.90;99.90
8820;DHT22;4446;50.876;4.736;2022-07-06T02:25:40;10.90;99.90
8820;DHT22;4446;50.876;4.736;2022-07-06T02:28:07;10.80;99.90
8820;DHT22;4446;50.876;4.736;2022-07-06T02:30:35;10.70;99.90
8820;DHT22;4446;50.876;4.736;2022-07-06T02:33:02;10.60;99.90
8820;DHT22;4446;50.876;4.736;2022-07-06T02:35:29;10.60;99.90
8820;DHT22;4446;50.876;4.736;2022-07-06T02:37:56;10.60;99.90
8820;DHT22;4446;50.876;4.736;2022-07-06T02:40:23;10.40;99.90
8820;DHT22;4446;50.876;4.736;2022-07-06T02:42:50;10.30;99.90
8820;DHT22;4446;50.876;4.736;2022-07-06T02:45:17;10.30;99.90
8820;DHT22;4446;50.876;4.736;2022-07-06T02:47:45;10.20;99.90
8820;DHT22;4446;50.876;4.736;2022-07-06T02:50:12;10.30;99.90
8820;DHT22;4446;50.876;4.736;2022-07-06T02:52:39;10.30;99.90
8820;DHT22;4446;50.876;4.736;2022-07-06T02:55:07;10.40;99.90
8820;DHT22;4446;50.876;4.736;2022-07-06T02:57:34;10.40;99.90
8820;DHT22;4446;50.876;4.736;2022-07-06T03:00:01;10.40;99.90
8820;DHT22;4446;50.876;4.736;2022-07-06T03:02:28;10.40;99.90
8820;DHT22;4446;50.876;4.736;2022-07-06T03:04:56;10.40;99.90
8820;DHT22;4446;50.876;4.736;2022-07-06T03:07:23;10.40;99.90
8820;DHT22;4446;50.876;4.736;2022-07-06T03:09:50;10.40;99.90
8820;DHT22;4446;50.876;4.736;2022-07-06T03:12:17;10.30;99.90
8820;DHT22;4446;50.876;4.736;2022-07-06T03:14:44;10.30;99.90
8820;DHT22;4446;50.876;4.736;2022-07-06T03:17:12;10.20;99.90
8820;DHT22;4446;50.876;4.736;2022-07-06T03:19:39;10.20;99.90
8820;DHT22;4446;50.876;4.736;2022-07-06T03:22:07;10.10;99.90
8820;DHT22;4446;50.876;4.736;2022-07-06T03:24:34;10.20;99.90
8820;DHT22;4446;50.876;4.736;2022-07-06T03:27:01;10.10;99.90
8820;DHT22;4446;50.876;4.736;2022-07-06T03:29:28;10.10;99.90
8820;DHT22;4446;50.876;4.736;2022-07-06T03:31:55;10.10;99.90
8820;DHT22;4446;50.876;4.736;2022-07-06T03:34:22;10.00;99.90
8820;DHT22;4446;50.876;4.736;2022-07-06T03:36:49;10.00;99.90
8820;DHT22;4446;50.876;4.736;2022-07-06T03:39:17;10.00;99.90
8820;DHT22;4446;50.876;4.736;2022-07-06T03:41:44;9.90;99.90
8820;DHT22;4446;50.876;4.736;2022-07-06T03:44:11;9.90;99.90
8820;DHT22;4446;50.876;4.736;2022-07-06T03:46:38;9.90;99.90
8820;DHT22;4446;50.876;4.736;2022-07-06T03:49:05;9.90;99.90
8820;DHT22;4446;50.876;4.736;2022-07-06T03:51:32;9.90;99.90
8820;DHT22;4446;50.876;4.736;2022-07-06T03:53:59;9.90;99.90
8820;DHT22;4446;50.876;4.736;2022-07-06T03:56:27;9.90;99.90
8820;DHT22;4446;50.876;4.736;2022-07-06T03:58:55;9.90;99.90
8820;DHT22;4446;50.876;4.736;2022-07-06T04:01:22;9.90;99.90
8820;DHT22;4446;50.876;4.736;2022-07-06T04:03:50;9.90;99.90
8820;DHT22;4446;50.876;4.736;2022-07-06T04:06:17;10.00;99.90
8820;DHT22;4446;50.876;4.736;2022-07-06T04:08:44;10.00;99.90
8820;DHT22;4446;50.876;4.736;2022-07-06T04:11:11;10.10;99.90
8820;DHT22;4446;50.876;4.736;2022-07-06T04:13:39;10.20;99.90
8820;DHT22;4446;50.876;4.736;2022-07-06T04:16:07;10.20;99.90
8820;DHT22;4446;50.876;4.736;2022-07-06T04:18:34;10.30;99.90
8820;DHT22;4446;50.876;4.736;2022-07-06T04:21:01;10.30;99.90
8820;DHT22;4446;50.876;4.736;2022-07-06T04:23:29;10.40;99.90
8820;DHT22;4446;50.876;4.736;2022-07-06T04:25:56;10.50;99.90
8820;DHT22;4446;50.876;4.736;2022-07-06T04:28:22;10.50;99.90
8820;DHT22;4446;50.876;4.736;2022-07-06T04:30:51;10.60;99.90
8820;DHT22;4446;50.876;4.736;2022-07-06T04:33:18;10.70;99.90
8820;DHT22;4446;50.876;4.736;2022-07-06T04:35:45;10.70;99.90
8820;DHT22;4446;50.876;4.736;2022-07-06T04:38:12;10.80;99.90
8820;DHT22;4446;50.876;4.736;2022-07-06T04:40:39;10.80;99.90
8820;DHT22;4446;50.876;4.736;2022-07-06T04:43:06;10.90;99.90
8820;DHT22;4446;50.876;4.736;2022-07-06T04:45:33;11.00;99.90
8820;DHT22;4446;50.876;4.736;2022-07-06T04:48:02;11.00;99.90
8820;DHT22;4446;50.876;4.736;2022-07-06T04:50:29;11.10;99.90
8820;DHT22;4446;50.876;4.736;2022-07-06T04:52:57;11.20;99.90
8820;DHT22;4446;50.876;4.736;2022-07-06T04:55:24;11.20;99.90
8820;DHT22;4446;50.876;4.736;2022-07-06T04:57:51;11.30;99.90
8820;DHT22;4446;50.876;4.736;2022-07-06T05:00:18;11.40;99.90
8820;DHT22;4446;50.876;4.736;2022-07-06T05:02:45;11.50;99.90
8820;DHT22;4446;50.876;4.736;2022-07-06T05:05:13;11.70;99.90
8820;DHT22;4446;50.876;4.736;2022-07-06T05:07:40;12.00;99.90
8820;DHT22;4446;50.876;4.736;2022-07-06T05:10:09;12.20;99.90
8820;DHT22;4446;50.876;4.736;2022-07-06T05:12:37;12.50;99.90
8820;DHT22;4446;50.876;4.736;2022-07-06T05:15:05;12.70;99.90
8820;DHT22;4446;50.876;4.736;2022-07-06T05:17:32;12.90;99.90
8820;DHT22;4446;50.876;4.736;2022-07-06T05:19:59;13.10;99.90
8820;DHT22;4446;50.876;4.736;2022-07-06T05:22:27;13.10;99.90
8820;DHT22;4446;50.876;4.736;2022-07-06T05:24:54;13.10;99.90
8820;DHT22;4446;50.876;4.736;2022-07-06T05:27:21;13.20;99.90
8820;DHT22;4446;50.876;4.736;2022-07-06T05:29:48;13.10;99.90
8820;DHT22;4446;50.876;4.736;2022-07-06T05:32:15;13.20;99.90
8820;DHT22;4446;50.876;4.736;2022-07-06T05:34:42;13.40;99.90
8820;DHT22;4446;50.876;4.736;2022-07-06T05:37:09;13.50;99.90
8820;DHT22;4446;50.876;4.736;2022-07-06T05:39:37;13.60;99.90
8820;DHT22;4446;50.876;4.736;2022-07-06T05:42:05;13.70;99.90
8820;DHT22;4446;50.876;4.736;2022-07-06T05:44:32;13.80;99.90
8820;DHT22;4446;50.876;4.736;2022-07-06T05:46:59;13.70;99.90
8820;DHT22;4446;50.876;4.736;2022-07-06T05:49:40;13.70;99.90
8820;DHT22;4446;50.876;4.736;2022-07-06T05:52:24;13.60;99.90
8820;DHT22;4446;50.876;4.736;2022-07-06T05:54:53;13.60;99.90
8820;DHT22;4446;50.876;4.736;2022-07-06T05:57:20;13.60;99.90
8820;DHT22;4446;50.876;4.736;2022-07-06T05:59:47;13.70;99.90
8820;DHT22;4446;50.876;4.736;2022-07-06T06:02:14;13.60;99.90
8820;DHT22;4446;50.876;4.736;2022-07-06T06:04:41;13.70;99.90
8820;DHT22;4446;50.876;4.736;2022-07-06T06:07:08;13.70;99.90
8820;DHT22;4446;50.876;4.736;2022-07-06T06:09:35;13.80;99.90
8820;DHT22;4446;50.876;4.736;2022-07-06T06:12:04;13.90;99.90
8820;DHT22;4446;50.876;4.736;2022-07-06T06:14:31;14.00;99.90
8820;DHT22;4446;50.876;4.736;2022-07-06T06:16:58;14.20;99.90
8820;DHT22;4446;50.876;4.736;2022-07-06T06:19:25;14.40;99.90
8820;DHT22;4446;50.876;4.736;2022-07-06T06:21:52;14.70;99.90
8820;DHT22;4446;50.876;4.736;2022-07-06T06:24:19;14.90;99.90
8820;DHT22;4446;50.876;4.736;2022-07-06T06:26:46;15.00;99.90
8820;DHT22;4446;50.876;4.736;2022-07-06T06:29:14;15.10;99.90
8820;DHT22;4446;50.876;4.736;2022-07-06T06:31:41;15.30;99.90
8820;DHT22;4446;50.876;4.736;2022-07-06T06:34:09;15.50;99.90
8820;DHT22;4446;50.876;4.736;2022-07-06T06:36:36;15.70;99.90
8820;DHT22;4446;50.876;4.736;2022-07-06T06:39:03;15.90;99.90
8820;DHT22;4446;50.876;4.736;2022-07-06T06:41:30;16.10;99.90
8820;DHT22;4446;50.876;4.736;2022-07-06T06:43:57;16.30;99.90
8820;DHT22;4446;50.876;4.736;2022-07-06T06:46:25;16.50;99.90
8820;DHT22;4446;50.876;4.736;2022-07-06T06:48:52;16.70;99.90
8820;DHT22;4446;50.876;4.736;2022-07-06T06:51:19;16.80;99.90
8820;DHT22;4446;50.876;4.736;2022-07-06T06:53:47;16.90;99.90
8820;DHT22;4446;50.876;4.736;2022-07-06T06:56:14;17.00;99.90
8820;DHT22;4446;50.876;4.736;2022-07-06T06:58:42;17.00;99.90
8820;DHT22;4446;50.876;4.736;2022-07-06T07:01:09;17.10;99.90
8820;DHT22;4446;50.876;4.736;2022-07-06T07:03:38;17.20;99.90
8820;DHT22;4446;50.876;4.736;2022-07-06T07:06:05;17.30;99.90
8820;DHT22;4446;50.876;4.736;2022-07-06T07:08:32;17.40;99.90
8820;DHT22;4446;50.876;4.736;2022-07-06T07:10:59;17.60;99.90
8820;DHT22;4446;50.876;4.736;2022-07-06T07:13:26;17.70;99.90
8820;DHT22;4446;50.876;4.736;2022-07-06T07:15:53;18.00;99.90
8820;DHT22;4446;50.876;4.736;2022-07-06T07:18:20;18.10;99.90
8820;DHT22;4446;50.876;4.736;2022-07-06T07:20:48;18.20;99.90
8820;DHT22;4446;50.876;4.736;2022-07-06T07:23:15;18.30;99.90
8820;DHT22;4446;50.876;4.736;2022-07-06T07:25:42;18.40;99.90
8820;DHT22;4446;50.876;4.736;2022-07-06T07:28:09;18.50;99.90
8820;DHT22;4446;50.876;4.736;2022-07-06T07:30:36;18.50;99.90
8820;DHT22;4446;50.876;4.736;2022-07-06T07:33:03;18.50;99.90
8820;DHT22;4446;50.876;4.736;2022-07-06T07:35:31;18.40;99.90
8820;DHT22;4446;50.876;4.736;2022-07-06T07:37:59;18.30;99.90
8820;DHT22;4446;50.876;4.736;2022-07-06T07:40:26;18.30;99.90
8820;DHT22;4446;50.876;4.736;2022-07-06T07:42:53;18.30;99.90
8820;DHT22;4446;50.876;4.736;2022-07-06T07:45:20;18.50;99.90
8820;DHT22;4446;50.876;4.736;2022-07-06T07:47:47;18.60;99.90
8820;DHT22;4446;50.876;4.736;2022-07-06T07:50:14;18.70;99.90
8820;DHT22;4446;50.876;4.736;2022-07-06T07:52:41;18.80;99.90
8820;DHT22;4446;50.876;4.736;2022-07-06T07:55:10;18.80;99.90
8820;DHT22;4446;50.876;4.736;2022-07-06T07:57:37;18.90;99.90
8820;DHT22;4446;50.876;4.736;2022-07-06T08:00:05;18.90;99.90
8820;DHT22;4446;50.876;4.736;2022-07-06T08:02:33;18.90;99.90
8820;DHT22;4446;50.876;4.736;2022-07-06T08:04:59;19.00;99.90
8820;DHT22;4446;50.876;4.736;2022-07-06T08:07:27;19.10;99.90
8820;DHT22;4446;50.876;4.736;2022-07-06T08:09:54;19.20;99.90
8820;DHT22;4446;50.876;4.736;2022-07-06T08:12:22;19.20;99.90
8820;DHT22;4446;50.876;4.736;2022-07-06T08:14:49;19.20;99.90
8820;DHT22;4446;50.876;4.736;2022-07-06T08:17:16;19.30;99.90
8820;DHT22;4446;50.876;4.736;2022-07-06T08:19:43;19.20;99.90
8820;DHT22;4446;50.876;4.736;2022-07-06T08:22:10;19.20;99.90
8820;DHT22;4446;50.876;4.736;2022-07-06T08:24:37;19.40;99.90
8820;DHT22;4446;50.876;4.736;2022-07-06T08:27:04;19.70;99.90
8820;DHT22;4446;50.876;4.736;2022-07-06T08:29:33;20.00;99.90
8820;DHT22;4446;50.876;4.736;2022-07-06T08:32:00;20.10;99.90
8820;DHT22;4446;50.876;4.736;2022-07-06T08:34:27;20.20;99.90
8820;DHT22;4446;50.876;4.736;2022-07-06T08:36:54;20.20;99.90
8820;DHT22;4446;50.876;4.736;2022-07-06T08:39:21;20.20;99.90
8820;DHT22;4446;50.876;4.736;2022-07-06T08:41:49;20.20;99.90
8820;DHT22;4446;50.876;4.736;2022-07-06T08:44:17;20.30;99.90
8820;DHT22;4446;50.876;4.736;2022-07-06T08:46:46;20.50;99.90
8820;DHT22;4446;50.876;4.736;2022-07-06T08:49:16;20.50;99.90
8820;DHT22;4446;50.876;4.736;2022-07-06T08:51:45;20.60;99.90
8820;DHT22;4446;50.876;4.736;2022-07-06T08:54:12;20.60;99.90
8820;DHT22;4446;50.876;4.736;2022-07-06T08:56:40;20.70;99.90
8820;DHT22;4446;50.876;4.736;2022-07-06T08:59:07;20.80;99.90
8820;DHT22;4446;50.876;4.736;2022-07-06T09:01:38;21.00;99.90
8820;DHT22;4446;50.876;4.736;2022-07-06T09:04:07;21.30;99.90
8820;DHT22;4446;50.876;4.736;2022-07-06T09:06:35;21.60;99.90
8820;DHT22;4446;50.876;4.736;2022-07-06T09:09:05;21.60;99.90
8820;DHT22;4446;50.876;4.736;2022-07-06T09:11:33;21.80;99.90
8820;DHT22;4446;50.876;4.736;2022-07-06T09:14:01;21.90;99.90
8820;DHT22;4446;50.876;4.736;2022-07-06T09:16:29;21.90;99.90
8820;DHT22;4446;50.876;4.736;2022-07-06T09:18:57;22.20;99.90
8820;DHT22;4446;50.876;4.736;2022-07-06T09:21:27;22.20;99.90
8820;DHT22;4446;50.876;4.736;2022-07-06T09:23:57;22.10;99.90
8820;DHT22;4446;50.876;4.736;2022-07-06T09:26:25;21.80;99.90
8820;DHT22;4446;50.876;4.736;2022-07-06T09:28:52;21.60;99.90
8820;DHT22;4446;50.876;4.736;2022-07-06T09:31:21;21.60;99.90
8820;DHT22;4446;50.876;4.736;2022-07-06T09:33:55;21.80;99.90
8820;DHT22;4446;50.876;4.736;2022-07-06T09:36:44;21.90;99.90
8820;DHT22;4446;50.876;4.736;2022-07-06T09:39:19;21.90;99.90
8820;DHT22;4446;50.876;4.736;2022-07-06T09:41:46;21.90;99.90
8820;DHT22;4446;50.876;4.736;2022-07-06T09:44:18;21.80;99.90
8820;DHT22;4446;50.876;4.736;2022-07-06T09:46:46;21.80;99.90
8820;DHT22;4446;50.876;4.736;2022-07-06T09:49:17;22.00;99.90
8820;DHT22;4446;50.876;4.736;2022-07-06T09:51:46;22.10;99.90
8820;DHT22;4446;50.876;4.736;2022-07-06T09:54:14;22.20;99.90
8820;DHT22;4446;50.876;4.736;2022-07-06T09:56:43;22.70;99.90
8820;DHT22;4446;50.876;4.736;2022-07-06T09:59:13;22.80;99.90
8820;DHT22;4446;50.876;4.736;2022-07-06T10:01:40;22.70;99.90
8820;DHT22;4446;50.876;4.736;2022-07-06T10:04:09;22.70;99.90
8820;DHT22;4446;50.876;4.736;2022-07-06T10:06:38;22.80;99.90
8820;DHT22;4446;50.876;4.736;2022-07-06T10:09:08;22.90;99.90
8820;DHT22;4446;50.876;4.736;2022-07-06T10:11:39;22.60;99.90
8820;DHT22;4446;50.876;4.736;2022-07-06T10:14:07;22.60;99.90
8820;DHT22;4446;50.876;4.736;2022-07-06T10:16:36;22.60;99.90
8820;DHT22;4446;50.876;4.736;2022-07-06T10:19:05;22.50;99.90
8820;DHT22;4446;50.876;4.736;2022-07-06T10:21:33;22.50;99.90
8820;DHT22;4446;50.876;4.736;2022-07-06T10:24:03;22.50;99.90
8820;DHT22;4446;50.876;4.736;2022-07-06T10:26:32;22.60;99.90
8820;DHT22;4446;50.876;4.736;2022-07-06T10:29:00;22.70;99.90
8820;DHT22;4446;50.876;4.736;2022-07-06T10:31:28;22.70;99.90
8820;DHT22;4446;50.876;4.736;2022-07-06T10:33:57;23.00;99.90
8820;DHT22;4446;50.876;4.736;2022-07-06T10:36:26;23.10;99.90
8820;DHT22;4446;50.876;4.736;2022-07-06T10:38:54;23.20;99.90
8820;DHT22;4446;50.876;4.736;2022-07-06T10:41:32;23.00;99.90
8820;DHT22;4446;50.876;4.736;2022-07-06T10:44:14;23.30;99.90
8820;DHT22;4446;50.876;4.736;2022-07-06T10:46:50;23.90;99.90
8820;DHT22;4446;50.876;4.736;2022-07-06T10:49:17;24.10;99.90
8820;DHT22;4446;50.876;4.736;2022-07-06T10:51:45;24.20;99.90
8820;DHT22;4446;50.876;4.736;2022-07-06T10:54:13;24.20;99.90
8820;DHT22;4446;50.876;4.736;2022-07-06T10:56:45;24.00;99.90
8820;DHT22;4446;50.876;4.736;2022-07-06T10:59:13;23.80;99.90
8820;DHT22;4446;50.876;4.736;2022-07-06T11:01:40;23.80;99.90
8820;DHT22;4446;50.876;4.736;2022-07-06T11:04:09;23.90;99.90
8820;DHT22;4446;50.876;4.736;2022-07-06T11:06:38;23.90;99.90
8820;DHT22;4446;50.876;4.736;2022-07-06T11:09:06;23.70;99.90
8820;DHT22;4446;50.876;4.736;2022-07-06T11:11:42;23.60;99.90
8820;DHT22;4446;50.876;4.736;2022-07-06T11:14:13;23.70;99.90
8820;DHT22;4446;50.876;4.736;2022-07-06T11:17:00;23.80;99.90
8820;DHT22;4446;50.876;4.736;2022-07-06T11:19:28;24.00;99.90
8820;DHT22;4446;50.876;4.736;2022-07-06T11:21:56;24.00;99.90
8820;DHT22;4446;50.876;4.736;2022-07-06T11:24:25;23.80;99.90
8820;DHT22;4446;50.876;4.736;2022-07-06T11:26:55;23.70;99.90
8820;DHT22;4446;50.876;4.736;2022-07-06T11:29:24;23.80;99.90
8820;DHT22;4446;50.876;4.736;2022-07-06T11:31:54;23.90;99.90
8820;DHT22;4446;50.876;4.736;2022-07-06T11:34:23;23.70;99.90
8820;DHT22;4446;50.876;4.736;2022-07-06T11:36:55;23.60;99.90
8820;DHT22;4446;50.876;4.736;2022-07-06T11:39:22;23.70;99.90
8820;DHT22;4446;50.876;4.736;2022-07-06T11:41:49;23.60;99.90
8820;DHT22;4446;50.876;4.736;2022-07-06T11:44:18;23.70;99.90
8820;DHT22;4446;50.876;4.736;2022-07-06T11:46:45;23.70;99.90
8820;DHT22;4446;50.876;4.736;2022-07-06T11:49:12;23.80;99.90
8820;DHT22;4446;50.876;4.736;2022-07-06T11:51:40;24.00;99.90
8820;DHT22;4446;50.876;4.736;2022-07-06T11:54:10;24.40;99.90
8820;DHT22;4446;50.876;4.736;2022-07-06T11:56:37;24.60;99.90
8820;DHT22;4446;50.876;4.736;2022-07-06T11:59:05;24.50;99.90
8820;DHT22;4446;50.876;4.736;2022-07-06T12:01:34;24.50;99.90
8820;DHT22;4446;50.876;4.736;2022-07-06T12:04:07;24.50;99.90
8820;DHT22;4446;50.876;4.736;2022-07-06T12:06:34;24.50;99.90
8820;DHT22;4446;50.876;4.736;2022-07-06T12:09:04;24.60;99.90
8820;DHT22;4446;50.876;4.736;2022-07-06T12:11:33;24.70;99.90
8820;DHT22;4446;50.876;4.736;2022-07-06T12:14:02;24.70;99.90
8820;DHT22;4446;50.876;4.736;2022-07-06T12:16:31;24.70;99.90
8820;DHT22;4446;50.876;4.736;2022-07-06T12:19:02;24.50;99.90
8820;DHT22;4446;50.876;4.736;2022-07-06T12:21:29;24.50;99.90
8820;DHT22;4446;50.876;4.736;2022-07-06T12:23:57;24.50;99.90
8820;DHT22;4446;50.876;4.736;2022-07-06T12:26:27;24.60;99.90
8820;DHT22;4446;50.876;4.736;2022-07-06T12:29:02;24.70;99.90
8820;DHT22;4446;50.876;4.736;2022-07-06T12:31:32;24.90;99.90
8820;DHT22;4446;50.876;4.736;2022-07-06T12:34:01;25.00;99.90
8820;DHT22;4446;50.876;4.736;2022-07-06T12:36:28;24.90;99.70
8820;DHT22;4446;50.876;4.736;2022-07-06T12:38:55;24.40;99.90
8820;DHT22;4446;50.876;4.736;2022-07-06T12:41:27;24.30;99.90
8820;DHT22;4446;50.876;4.736;2022-07-06T12:44:03;24.60;99.90
8820;DHT22;4446;50.876;4.736;2022-07-06T12:46:32;24.40;99.90
8820;DHT22;4446;50.876;4.736;2022-07-06T12:49:10;24.50;99.90
8820;DHT22;4446;50.876;4.736;2022-07-06T12:51:55;24.40;99.90
8820;DHT22;4446;50.876;4.736;2022-07-06T12:54:23;24.70;99.90
8820;DHT22;4446;50.876;4.736;2022-07-06T12:57:08;24.70;99.90
8820;DHT22;4446;50.876;4.736;2022-07-06T12:59:39;24.50;99.90
8820;DHT22;4446;50.876;4.736;2022-07-06T13:02:07;24.70;99.90
8820;DHT22;4446;50.876;4.736;2022-07-06T13:04:36;24.90;99.90
8820;DHT22;4446;50.876;4.736;2022-07-06T13:07:04;24.80;99.90
8820;DHT22;4446;50.876;4.736;2022-07-06T13:09:31;24.60;99.90
8820;DHT22;4446;50.876;4.736;2022-07-06T13:11:58;24.40;99.90
8820;DHT22;4446;50.876;4.736;2022-07-06T13:14:25;24.20;99.90
8820;DHT22;4446;50.876;4.736;2022-07-06T13:16:53;24.40;99.90
8820;DHT22;4446;50.876;4.736;2022-07-06T13:19:20;24.40;99.90
8820;DHT22;4446;50.876;4.736;2022-07-06T13:21:49;24.30;99.90
8820;DHT22;4446;50.876;4.736;2022-07-06T13:24:16;24.10;99.90
8820;DHT22;4446;50.876;4.736;2022-07-06T13:26:43;24.10;99.90
8820;DHT22;4446;50.876;4.736;2022-07-06T13:29:11;24.40;99.90
8820;DHT22;4446;50.876;4.736;2022-07-06T13:31:39;24.70;99.90
8820;DHT22;4446;50.876;4.736;2022-07-06T13:34:06;24.50;99.90
8820;DHT22;4446;50.876;4.736;2022-07-06T13:36:34;24.80;99.90
8820;DHT22;4446;50.876;4.736;2022-07-06T13:39:03;25.10;99.90
8820;DHT22;4446;50.876;4.736;2022-07-06T13:41:30;25.20;99.80
8820;DHT22;4446;50.876;4.736;2022-07-06T13:43:57;25.20;99.90
8820;DHT22;4446;50.876;4.736;2022-07-06T13:46:26;25.10;99.50
8820;DHT22;4446;50.876;4.736;2022-07-06T13:48:53;25.10;99.60
8820;DHT22;4446;50.876;4.736;2022-07-06T13:51:22;25.60;99.80
8820;DHT22;4446;50.876;4.736;2022-07-06T13:53:49;26.40;98.70
8820;DHT22;4446;50.876;4.736;2022-07-06T13:56:18;26.90;98.70
8820;DHT22;4446;50.876;4.736;2022-07-06T13:58:45;27.00;98.50
8820;DHT22;4446;50.876;4.736;2022-07-06T14:01:12;27.80;98.70
8820;DHT22;4446;50.876;4.736;2022-07-06T14:03:40;28.70;96.80
8820;DHT22;4446;50.876;4.736;2022-07-06T14:06:07;28.90;95.40
8820;DHT22;4446;50.876;4.736;2022-07-06T14:08:36;28.70;94.70
8820;DHT22;4446;50.876;4.736;2022-07-06T14:11:03;28.30;94.70
8820;DHT22;4446;50.876;4.736;2022-07-06T14:13:33;28.30;94.60
8820;DHT22;4446;50.876;4.736;2022-07-06T14:16:00;28.50;94.00
8820;DHT22;4446;50.876;4.736;2022-07-06T14:18:28;28.40;95.30
8820;DHT22;4446;50.876;4.736;2022-07-06T14:20:55;28.40;94.60
8820;DHT22;4446;50.876;4.736;2022-07-06T14:23:23;28.00;94.60
8820;DHT22;4446;50.876;4.736;2022-07-06T14:25:51;27.40;95.00
8820;DHT22;4446;50.876;4.736;2022-07-06T14:28:20;27.40;95.90
8820;DHT22;4446;50.876;4.736;2022-07-06T14:30:49;27.50;95.40
8820;DHT22;4446;50.876;4.736;2022-07-06T14:33:18;27.20;96.20
8820;DHT22;4446;50.876;4.736;2022-07-06T14:35:47;26.80;95.80
8820;DHT22;4446;50.876;4.736;2022-07-06T14:38:16;26.30;96.50
8820;DHT22;4446;50.876;4.736;2022-07-06T14:40:43;26.00;96.80
8820;DHT22;4446;50.876;4.736;2022-07-06T14:43:12;26.20;97.00
8820;DHT22;4446;50.876;4.736;2022-07-06T14:45:39;26.20;96.60
8820;DHT22;4446;50.876;4.736;2022-07-06T14:48:08;26.60;96.90
8820;DHT22;4446;50.876;4.736;2022-07-06T14:50:35;27.20;95.90
8820;DHT22;4446;50.876;4.736;2022-07-06T14:53:03;27.60;95.00
8820;DHT22;4446;50.876;4.736;2022-07-06T14:55:32;27.80;94.00
8820;DHT22;4446;50.876;4.736;2022-07-06T14:57:59;28.00;94.60
8820;DHT22;4446;50.876;4.736;2022-07-06T15:00:26;28.00;94.50
8820;DHT22;4446;50.876;4.736;2022-07-06T15:02:53;27.60;94.80
8820;DHT22;4446;50.876;4.736;2022-07-06T15:05:21;27.60;96.10
8820;DHT22;4446;50.876;4.736;2022-07-06T15:07:48;27.40;95.10
8820;DHT22;4446;50.876;4.736;2022-07-06T15:10:15;27.30;95.60
8820;DHT22;4446;50.876;4.736;2022-07-06T15:12:42;27.40;95.00
8820;DHT22;4446;50.876;4.736;2022-07-06T15:15:10;27.90;94.50
8820;DHT22;4446;50.876;4.736;2022-07-06T15:17:37;28.40;95.20
8820;DHT22;4446;50.876;4.736;2022-07-06T15:20:05;28.10;94.40
8820;DHT22;4446;50.876;4.736;2022-07-06T15:22:33;27.50;94.70
8820;DHT22;4446;50.876;4.736;2022-07-06T15:25:02;27.00;95.50
8820;DHT22;4446;50.876;4.736;2022-07-06T15:27:29;27.00;96.70
8820;DHT22;4446;50.876;4.736;2022-07-06T15:29:56;27.50;95.60
8820;DHT22;4446;50.876;4.736;2022-07-06T15:32:25;27.80;95.10
8820;DHT22;4446;50.876;4.736;2022-07-06T15:34:52;27.80;94.70
8820;DHT22;4446;50.876;4.736;2022-07-06T15:37:19;27.70;94.60
8820;DHT22;4446;50.876;4.736;2022-07-06T15:39:47;27.10;95.10
8820;DHT22;4446;50.876;4.736;2022-07-06T15:42:14;26.60;95.70
8820;DHT22;4446;50.876;4.736;2022-07-06T15:44:41;26.40;96.80
8820;DHT22;4446;50.876;4.736;2022-07-06T15:47:08;26.30;96.50
8820;DHT22;4446;50.876;4.736;2022-07-06T15:49:35;26.40;96.70
8820;DHT22;4446;50.876;4.736;2022-07-06T15:52:03;26.10;96.60
8820;DHT22;4446;50.876;4.736;2022-07-06T15:54:30;25.80;96.40
8820;DHT22;4446;50.876;4.736;2022-07-06T15:56:58;25.60;96.90
8820;DHT22;4446;50.876;4.736;2022-07-06T15:59:25;25.60;97.60
8820;DHT22;4446;50.876;4.736;2022-07-06T16:01:52;25.80;97.50
8820;DHT22;4446;50.876;4.736;2022-07-06T16:04:19;26.30;97.00
8820;DHT22;4446;50.876;4.736;2022-07-06T16:06:48;26.30;97.10